createdAt,value
2023-03-24T01:28:32.382Z,2.10
2023-03-24T07:05:31.908Z,2.60
2023-03-24T08:21:04.948Z,2.38
2023-03-24T08:26:06.350Z,3.05
2023-03-24T08:46:14.052Z,3.80
2023-03-24T08:51:16.177Z,3.15
2023-03-24T09:01:20.522Z,2.20
2023-03-24T09:06:22.086Z,2.42
2023-03-24T09:31:30.836Z,1.65
2023-03-24T09:51:56.022Z,1.63
2023-03-24T09:56:58.724Z,2.15
2023-03-24T10:02:01.737Z,2.15
2023-03-24T10:07:23.537Z,1.40
2023-03-24T10:12:24.787Z,2.20
2023-03-24T10:17:44.341Z,2.35
2023-03-24T10:22:45.653Z,2.33
2023-03-24T10:27:49.685Z,1.90
2023-03-24T10:32:52.663Z,2.40
2023-03-24T10:43:30.139Z,2.08
2023-03-24T10:48:42.827Z,2.35
2023-03-24T10:59:27.182Z,1.17
2023-03-24T11:04:30.605Z,2.40
2023-03-24T11:09:58.405Z,1.85
2023-03-24T11:15:22.996Z,2.17
2023-03-24T11:20:28.079Z,2.00
2023-03-24T11:25:34.449Z,2.33
2023-03-24T11:30:45.891Z,1.60
2023-03-24T11:35:56.002Z,1.85
2023-03-24T11:41:06.261Z,2.03
2023-03-24T11:46:17.436Z,2.08
2023-03-24T11:51:26.233Z,1.80
2023-03-24T11:56:31.663Z,1.92
2023-03-24T12:01:36.224Z,1.90
2023-03-24T12:06:43.835Z,1.42
2023-03-24T12:12:08.183Z,1.65
2023-03-24T12:17:41.452Z,1.73
2023-03-24T12:23:05.288Z,1.65
2023-03-24T12:28:06.865Z,1.90
2023-03-24T12:44:26.461Z,2.20
2023-03-24T12:49:34.264Z,1.77
2023-03-24T12:59:51.548Z,1.63
2023-03-24T13:04:55.982Z,2.13
2023-03-24T13:10:27.824Z,1.58
2023-03-24T13:15:48.572Z,1.50
2023-03-24T13:21:08.480Z,1.30
2023-03-24T13:31:58.291Z,1.05
2023-03-24T13:37:03.215Z,1.23
2023-03-24T13:42:04.887Z,1.88
2023-03-24T13:52:36.778Z,1.35
2023-03-24T13:57:52.155Z,0.90
2023-03-24T14:02:55.998Z,0.90
2023-03-24T14:08:00.212Z,1.40
2023-03-24T14:13:25.616Z,1.20
2023-03-24T14:18:28.791Z,1.17
2023-03-24T14:23:36.083Z,0.80
2023-03-24T14:28:45.456Z,0.98
2023-03-24T14:39:32.442Z,1.25
2023-03-24T14:44:46.583Z,0.90
2023-03-24T14:49:49.402Z,1.52
2023-03-24T14:54:53.398Z,1.00
2023-03-24T15:00:02.131Z,1.42
2023-03-24T15:05:24.282Z,0.77
2023-03-24T15:10:27.644Z,1.45
2023-03-24T15:15:29.180Z,1.48
2023-03-24T15:20:35.168Z,1.20
2023-03-24T15:25:40.800Z,1.10
2023-03-24T15:30:42.309Z,0.95
2023-03-24T15:35:44.681Z,1.15
2023-03-24T15:40:55.208Z,1.15
2023-03-24T15:46:11.237Z,1.25
2023-03-24T15:51:14.459Z,1.58
2023-03-24T15:56:17.546Z,1.40
2023-03-24T16:01:31.890Z,2.10
2023-03-24T16:06:37.288Z,1.80
2023-03-24T16:11:38.710Z,1.10
2023-03-24T16:16:41.829Z,1.60
2023-03-24T16:21:43.622Z,1.75
2023-03-24T16:26:45.017Z,1.02
2023-03-24T16:31:47.315Z,0.70
2023-03-24T16:36:52.543Z,0.98
2023-03-24T16:41:54.275Z,1.63
2023-03-24T16:46:56.317Z,1.35
2023-03-24T16:51:57.692Z,1.98
2023-03-24T16:56:59.518Z,1.20
2023-03-24T17:02:04.231Z,1.58
2023-03-24T17:07:05.587Z,0.90
2023-03-24T17:12:08.826Z,0.70
2023-03-24T17:17:14.549Z,0.60
2023-03-24T17:22:16.186Z,0.65
2023-03-24T17:27:18.484Z,0.57
2023-03-24T17:32:22.203Z,0.80
2023-03-24T17:37:27.027Z,0.77
2023-03-24T17:42:28.714Z,0.77
2023-03-24T17:47:30.628Z,1.10
2023-03-24T17:52:32.096Z,0.95
2023-03-24T17:57:34.253Z,1.25
2023-03-24T18:02:35.770Z,1.08
2023-03-24T18:07:37.516Z,1.20
2023-03-24T18:12:39.109Z,1.80
2023-03-24T18:17:40.790Z,1.88
2023-03-24T18:22:42.429Z,2.08
2023-03-24T18:27:43.819Z,2.10
2023-03-24T18:32:45.326Z,2.10
2023-03-24T18:37:46.718Z,2.25
2023-03-24T18:42:48.246Z,1.48
2023-03-24T18:47:53.005Z,2.33
2023-03-24T18:52:54.592Z,2.20
2023-03-24T18:57:56.278Z,2.75
2023-03-24T19:02:58.842Z,2.13
2023-03-24T19:08:00.651Z,2.90
2023-03-24T19:13:02.621Z,2.53
2023-03-24T19:18:04.221Z,2.20
2023-03-24T19:23:05.902Z,1.85
2023-03-24T19:28:07.629Z,1.50
2023-03-24T19:33:09.098Z,2.88
2023-03-24T19:38:11.031Z,1.70
2023-03-24T19:43:12.470Z,1.67
2023-03-24T19:48:14.537Z,1.92
2023-03-24T19:53:16.006Z,2.08
2023-03-24T19:58:17.396Z,1.65
2023-03-24T20:03:21.204Z,1.52
2023-03-24T20:08:22.748Z,1.83
2023-03-24T20:13:24.662Z,1.55
2023-03-24T20:18:26.029Z,1.70
